createdAt,value
2022-10-07T00:00:55.518Z,11.14
2022-10-07T00:03:24.523Z,11.14
2022-10-07T00:06:07.517Z,11.11
2022-10-07T00:08:36.767Z,11.06
2022-10-07T00:11:12.477Z,11.01
2022-10-07T00:13:41.092Z,10.91
2022-10-07T00:16:17.193Z,10.88
2022-10-07T00:18:44.823Z,10.87
2022-10-07T00:21:14.789Z,10.87
2022-10-07T00:23:42.880Z,10.81
2022-10-07T00:26:13.853Z,10.79
2022-10-07T00:28:41.485Z,10.76
2022-10-07T00:31:13.143Z,10.74
2022-10-07T00:33:40.623Z,10.66
2022-10-07T00:36:09.440Z,10.69
2022-10-07T00:38:36.501Z,10.69
2022-10-07T00:41:03.770Z,10.67
2022-10-07T00:43:31.484Z,10.68
2022-10-07T00:46:07.692Z,10.65
2022-10-07T00:48:36.538Z,10.66
2022-10-07T00:51:03.678Z,10.67
2022-10-07T00:53:31.991Z,10.66
2022-10-07T00:56:01.978Z,10.65
2022-10-07T00:58:30.736Z,10.65
2022-10-07T01:00:58.013Z,10.54
2022-10-07T01:03:25.246Z,10.43
2022-10-07T01:05:52.336Z,10.37
2022-10-07T01:08:19.784Z,10.38
2022-10-07T01:11:03.533Z,10.42
2022-10-07T01:13:36.685Z,10.36
2022-10-07T01:16:07.841Z,10.30
2022-10-07T01:18:53.226Z,10.18
2022-10-07T01:21:47.185Z,10.15
2022-10-07T01:24:17.734Z,10.14
2022-10-07T01:26:47.637Z,10.11
2022-10-07T01:29:19.195Z,10.14
2022-10-07T01:31:51.184Z,10.18
2022-10-07T01:34:18.863Z,10.20
2022-10-07T01:36:50.943Z,10.13
2022-10-07T01:39:20.840Z,10.03
2022-10-07T01:41:48.275Z,10.05
2022-10-07T01:44:15.382Z,10.07
2022-10-07T01:46:43.134Z,10.04
2022-10-07T01:49:10.755Z,10.06
2022-10-07T01:51:39.115Z,10.04
2022-10-07T01:54:24.256Z,9.99
2022-10-07T01:56:52.275Z,9.97
2022-10-07T01:59:46.683Z,9.92
2022-10-07T02:02:56.483Z,9.86
2022-10-07T02:05:27.188Z,9.84
2022-10-07T02:08:12.497Z,9.86
2022-10-07T02:10:53.244Z,9.91
2022-10-07T02:13:38.587Z,9.93
2022-10-07T02:16:27.322Z,9.91
2022-10-07T02:18:55.582Z,9.88
2022-10-07T02:21:28.056Z,9.91
2022-10-07T02:23:56.717Z,9.92
2022-10-07T02:26:24.670Z,9.95
2022-10-07T02:28:53.473Z,9.93
2022-10-07T02:31:24.688Z,9.90
2022-10-07T02:33:54.076Z,9.83
2022-10-07T02:36:27.379Z,9.81
2022-10-07T02:38:54.473Z,9.77
2022-10-07T02:41:55.016Z,9.70
2022-10-07T02:44:26.028Z,9.59
2022-10-07T02:46:57.829Z,9.59
2022-10-07T02:49:25.488Z,9.55
2022-10-07T02:52:07.624Z,9.57
2022-10-07T02:54:38.421Z,9.57
2022-10-07T02:57:06.177Z,9.49
2022-10-07T02:59:34.115Z,9.49
2022-10-07T03:02:03.125Z,9.44
2022-10-07T03:04:30.364Z,9.49
2022-10-07T03:06:58.750Z,9.51
2022-10-07T03:09:25.915Z,9.50
2022-10-07T03:11:52.975Z,9.48
2022-10-07T03:14:20.092Z,9.43
2022-10-07T03:16:47.603Z,9.40
2022-10-07T03:19:14.939Z,9.43
2022-10-07T03:21:46.171Z,9.37
2022-10-07T03:24:13.278Z,9.28
2022-10-07T03:26:40.385Z,9.25
2022-10-07T03:29:08.521Z,9.27
2022-10-07T03:31:36.367Z,9.27
2022-10-07T03:34:03.620Z,9.24
2022-10-07T03:36:30.830Z,9.27
2022-10-07T03:38:58.474Z,9.26
2022-10-07T03:41:25.654Z,9.27
2022-10-07T03:43:52.824Z,9.29
2022-10-07T03:46:19.949Z,9.29
2022-10-07T03:48:47.067Z,9.26
2022-10-07T03:51:14.344Z,9.25
2022-10-07T03:53:41.394Z,9.20
2022-10-07T03:56:08.553Z,9.21
2022-10-07T03:58:35.769Z,9.16
2022-10-07T04:01:07.696Z,9.06
2022-10-07T04:03:34.788Z,9.06
2022-10-07T04:06:03.426Z,9.10
2022-10-07T04:08:32.858Z,9.13
2022-10-07T04:11:01.244Z,9.07
2022-10-07T04:13:28.854Z,9.05
2022-10-07T04:15:56.121Z,9.02
2022-10-07T04:18:23.579Z,9.03
2022-10-07T04:20:50.931Z,9.02
2022-10-07T04:23:17.978Z,8.96
2022-10-07T04:25:46.361Z,8.88
2022-10-07T04:28:17.255Z,8.83
2022-10-07T04:30:44.401Z,8.85
2022-10-07T04:33:11.810Z,8.91
2022-10-07T04:35:39.845Z,8.88
2022-10-07T04:38:11.219Z,8.87
2022-10-07T04:40:40.904Z,8.85
2022-10-07T04:43:19.529Z,8.85
2022-10-07T04:45:47.862Z,8.80
2022-10-07T04:48:17.861Z,8.78
2022-10-07T04:50:45.401Z,8.78
2022-10-07T04:53:17.160Z,8.79
2022-10-07T04:55:46.566Z,8.79
2022-10-07T04:58:15.093Z,8.79
2022-10-07T05:00:44.219Z,8.76
2022-10-07T05:03:15.256Z,8.76
2022-10-07T05:05:43.712Z,8.71
2022-10-07T05:08:12.378Z,8.73
2022-10-07T05:10:40.260Z,8.71
2022-10-07T05:13:12.461Z,8.73
2022-10-07T05:15:50.317Z,8.72
2022-10-07T05:18:18.678Z,8.73
2022-10-07T05:20:48.052Z,8.74
2022-10-07T05:23:16.620Z,8.72
2022-10-07T05:25:44.308Z,8.73
2022-10-07T05:28:12.822Z,8.73
2022-10-07T05:30:40.587Z,8.75
2022-10-07T05:33:09.599Z,8.70
2022-10-07T05:35:36.704Z,8.68
2022-10-07T05:38:04.207Z,8.71
2022-10-07T05:40:31.353Z,8.72
2022-10-07T05:42:58.486Z,8.74
2022-10-07T05:45:25.772Z,8.75
2022-10-07T05:47:53.100Z,8.76
2022-10-07T05:50:20.206Z,8.77
2022-10-07T05:52:48.469Z,8.77
2022-10-07T05:55:16.713Z,8.77
2022-10-07T05:57:44.137Z,8.78
2022-10-07T06:00:11.820Z,8.79
2022-10-07T06:02:39.021Z,8.79
2022-10-07T06:05:06.459Z,8.80
2022-10-07T06:07:33.579Z,8.79
2022-10-07T06:10:19.115Z,8.81
2022-10-07T06:13:06.105Z,8.85
2022-10-07T06:15:33.203Z,8.85
2022-10-07T06:18:00.289Z,8.86
2022-10-07T06:20:27.322Z,8.83
2022-10-07T06:22:55.324Z,8.79
2022-10-07T06:25:22.854Z,8.79
2022-10-07T06:27:54.095Z,8.81
2022-10-07T06:30:21.805Z,8.82
2022-10-07T06:32:49.027Z,8.83
2022-10-07T06:35:16.180Z,8.85
2022-10-07T06:37:43.544Z,8.87
2022-10-07T06:40:11.874Z,8.88
2022-10-07T06:42:38.947Z,8.90
2022-10-07T06:45:06.596Z,8.91
2022-10-07T06:47:34.578Z,8.95
2022-10-07T06:50:01.993Z,9.00
2022-10-07T06:52:29.076Z,9.03
2022-10-07T06:54:56.304Z,9.07
2022-10-07T07:00:11.460Z,9.14
2022-10-07T07:02:38.700Z,9.18
2022-10-07T07:05:08.420Z,9.24
2022-10-07T07:07:35.674Z,9.26
2022-10-07T07:10:03.307Z,9.31
2022-10-07T07:12:30.419Z,9.35
2022-10-07T07:14:57.579Z,9.39
2022-10-07T07:17:24.695Z,9.45
2022-10-07T07:19:51.818Z,9.52
2022-10-07T07:22:18.900Z,9.58
2022-10-07T07:24:46.139Z,9.63
2022-10-07T07:27:15.099Z,9.71
2022-10-07T07:29:42.469Z,9.75
2022-10-07T07:32:09.529Z,9.83
2022-10-07T07:34:38.483Z,9.89
2022-10-07T07:37:05.684Z,9.96
2022-10-07T07:39:33.183Z,10.02
2022-10-07T07:42:00.498Z,10.11
2022-10-07T07:44:33.974Z,10.15
2022-10-07T07:47:02.123Z,10.23
2022-10-07T07:49:31.930Z,10.31
2022-10-07T07:51:59.324Z,10.41
2022-10-07T07:54:27.311Z,10.49
2022-10-07T07:56:55.324Z,10.55
2022-10-07T07:59:23.566Z,10.61
2022-10-07T08:01:50.716Z,10.69
2022-10-07T08:04:17.965Z,10.76
2022-10-07T08:06:45.077Z,10.85
2022-10-07T08:09:12.974Z,10.92
2022-10-07T08:11:41.555Z,10.99
2022-10-07T08:14:08.661Z,11.08
2022-10-07T08:16:37.059Z,11.16
2022-10-07T08:19:04.379Z,11.22
2022-10-07T08:21:35.048Z,11.34
2022-10-07T08:24:04.708Z,11.39
2022-10-07T08:26:33.582Z,11.49
2022-10-07T08:29:01.403Z,11.56
2022-10-07T08:31:29.223Z,11.66
2022-10-07T08:33:58.308Z,11.75
2022-10-07T08:36:26.474Z,11.83
2022-10-07T08:38:53.636Z,11.91
2022-10-07T08:41:42.630Z,12.01
2022-10-07T08:44:19.215Z,12.11
2022-10-07T08:46:57.641Z,12.21
2022-10-07T08:49:30.489Z,12.32
2022-10-07T08:52:08.251Z,12.39
2022-10-07T08:54:35.325Z,12.53
2022-10-07T08:57:10.483Z,12.58
2022-10-07T08:59:39.708Z,12.68
2022-10-07T09:02:21.660Z,12.76
2022-10-07T09:05:15.401Z,12.84
2022-10-07T09:07:48.068Z,12.96
2022-10-07T09:10:37.561Z,13.10
2022-10-07T09:13:11.641Z,13.19
2022-10-07T09:15:43.307Z,13.29
2022-10-07T09:18:24.410Z,13.37
2022-10-07T09:20:53.967Z,13.48
2022-10-07T09:23:26.313Z,13.56
2022-10-07T09:25:53.365Z,13.64
2022-10-07T09:28:25.549Z,13.76
2022-10-07T09:30:52.788Z,13.90
2022-10-07T09:33:22.443Z,13.93
2022-10-07T09:35:57.591Z,14.04
2022-10-07T09:38:45.745Z,14.02
2022-10-07T09:41:32.351Z,14.11
2022-10-07T09:44:06.986Z,14.17
2022-10-07T09:46:54.975Z,14.19
2022-10-07T09:49:27.986Z,14.30
2022-10-07T09:52:15.877Z,14.38
2022-10-07T09:54:44.915Z,14.48
2022-10-07T09:57:41.121Z,14.58
2022-10-07T10:00:22.243Z,14.65
2022-10-07T10:02:55.715Z,14.75
2022-10-07T10:05:38.020Z,14.82
2022-10-07T10:08:22.517Z,14.92
2022-10-07T10:10:55.519Z,15.08
2022-10-07T10:13:27.078Z,15.20
2022-10-07T10:15:54.184Z,15.34
2022-10-07T10:18:33.500Z,15.43
2022-10-07T10:21:27.063Z,15.50
2022-10-07T10:23:57.195Z,15.60
2022-10-07T10:26:42.845Z,15.70
2022-10-07T10:29:14.585Z,15.80
2022-10-07T10:32:00.561Z,15.96
2022-10-07T10:35:03.256Z,16.11
2022-10-07T10:37:47.238Z,16.24
2022-10-07T10:40:48.792Z,16.32
2022-10-07T10:43:24.728Z,16.41
2022-10-07T10:46:17.971Z,16.62
2022-10-07T10:49:19.663Z,16.70
2022-10-07T10:52:13.559Z,16.67
2022-10-07T10:55:00.220Z,16.79
2022-10-07T10:57:43.370Z,16.90
2022-10-07T11:00:17.380Z,17.10
2022-10-07T11:03:12.608Z,17.17
2022-10-07T11:05:42.473Z,17.38
2022-10-07T11:08:38.913Z,17.52
2022-10-07T11:11:17.778Z,17.65
2022-10-07T11:13:52.666Z,17.80
2022-10-07T11:16:31.589Z,17.84
2022-10-07T11:19:06.218Z,17.96
2022-10-07T11:21:37.975Z,18.21
2022-10-07T11:24:15.188Z,18.25
2022-10-07T11:27:04.306Z,18.37
2022-10-07T11:29:33.907Z,18.51
2022-10-07T11:32:18.563Z,18.67
2022-10-07T11:35:03.834Z,18.90
2022-10-07T11:37:43.492Z,19.11
2022-10-07T11:40:10.597Z,19.43
2022-10-07T11:42:42.936Z,19.52
2022-10-07T11:45:16.676Z,19.48
2022-10-07T11:47:49.812Z,19.78
2022-10-07T11:50:23.062Z,20.04
2022-10-07T11:52:53.440Z,20.10
2022-10-07T11:55:29.215Z,20.35
2022-10-07T11:57:57.619Z,20.58
2022-10-07T12:00:31.861Z,20.92
2022-10-07T12:03:13.360Z,21.16
2022-10-07T12:05:40.360Z,21.35
2022-10-07T12:08:39.214Z,21.54
2022-10-07T12:11:15.561Z,21.95
2022-10-07T12:13:50.697Z,22.41
2022-10-07T12:16:23.871Z,22.71
2022-10-07T12:19:12.695Z,22.69
2022-10-07T12:22:03.806Z,23.08
2022-10-07T12:24:32.799Z,23.57
2022-10-07T12:27:17.481Z,23.69
2022-10-07T12:29:48.342Z,23.73
2022-10-07T12:32:40.241Z,23.95
2022-10-07T12:35:34.964Z,24.38
2022-10-07T12:38:13.677Z,24.59
2022-10-07T12:40:41.540Z,24.95
2022-10-07T12:43:46.140Z,25.27
2022-10-07T12:46:18.723Z,24.84
2022-10-07T12:48:50.485Z,24.70
2022-10-07T12:51:25.156Z,25.05
2022-10-07T12:53:53.393Z,24.97
2022-10-07T12:56:22.708Z,24.98
2022-10-07T12:59:23.320Z,25.45
2022-10-07T13:02:18.271Z,25.54
2022-10-07T13:05:21.058Z,25.36
2022-10-07T13:08:09.393Z,24.79
2022-10-07T13:11:17.245Z,24.80
2022-10-07T13:13:45.497Z,24.73
2022-10-07T13:16:21.853Z,25.15
2022-10-07T13:18:57.619Z,25.58
2022-10-07T13:21:29.191Z,25.70
2022-10-07T13:23:56.335Z,26.18
2022-10-07T13:26:25.255Z,25.60
2022-10-07T13:28:57.156Z,25.79
2022-10-07T13:31:26.296Z,25.97
2022-10-07T13:33:54.726Z,26.06
2022-10-07T13:36:29.722Z,26.49
2022-10-07T13:39:15.377Z,26.10
2022-10-07T13:41:47.484Z,25.30
2022-10-07T13:44:19.620Z,25.42
2022-10-07T13:47:06.205Z,25.38
2022-10-07T13:49:43.820Z,25.73
2022-10-07T13:52:29.562Z,25.84
2022-10-07T13:54:56.636Z,25.78
2022-10-07T13:57:24.615Z,25.70
2022-10-07T13:59:51.819Z,26.04
2022-10-07T14:02:20.520Z,26.27
2022-10-07T14:05:00.902Z,26.92
2022-10-07T14:07:28.863Z,27.32
2022-10-07T14:09:55.822Z,27.64
2022-10-07T14:12:29.987Z,27.33
2022-10-07T14:15:03.353Z,26.98
2022-10-07T14:17:40.943Z,27.26
2022-10-07T14:20:32.415Z,27.77
2022-10-07T14:23:21.560Z,27.25
2022-10-07T14:25:48.521Z,27.46
2022-10-07T14:28:19.172Z,27.32
2022-10-07T14:31:16.818Z,27.25
2022-10-07T14:34:11.938Z,27.13
2022-10-07T14:37:04.758Z,26.55
2022-10-07T14:39:39.140Z,26.28
2022-10-07T14:42:30.318Z,25.39
2022-10-07T14:44:57.602Z,25.22
2022-10-07T14:47:28.053Z,25.02
2022-10-07T14:49:56.479Z,24.60
2022-10-07T14:52:32.370Z,24.15
2022-10-07T14:55:01.564Z,23.70
2022-10-07T14:57:28.667Z,23.73
2022-10-07T14:59:56.196Z,23.31
2022-10-07T15:02:23.287Z,23.33
2022-10-07T15:04:50.870Z,23.17
2022-10-07T15:07:18.419Z,23.15
2022-10-07T15:09:45.902Z,23.11
2022-10-07T15:12:15.084Z,23.04
2022-10-07T15:14:42.230Z,22.94
2022-10-07T15:17:11.370Z,22.78
2022-10-07T15:19:38.494Z,22.60
2022-10-07T15:22:05.722Z,22.42
2022-10-07T15:24:33.173Z,22.29
2022-10-07T15:27:00.518Z,22.35
2022-10-07T15:29:27.713Z,22.15
2022-10-07T15:31:54.880Z,21.82
2022-10-07T15:34:22.009Z,21.70
2022-10-07T15:36:50.189Z,21.69
2022-10-07T15:39:17.323Z,21.67
2022-10-07T15:41:44.891Z,21.60
2022-10-07T15:44:19.828Z,21.41
2022-10-07T15:46:48.709Z,21.36
2022-10-07T15:49:18.845Z,21.27
2022-10-07T15:51:46.645Z,20.86
2022-10-07T15:54:13.970Z,20.70
2022-10-07T15:56:41.489Z,20.59
2022-10-07T15:59:08.827Z,20.65
2022-10-07T16:01:36.035Z,20.62
2022-10-07T16:04:04.084Z,20.35
2022-10-07T16:06:33.866Z,20.04
2022-10-07T16:09:01.949Z,19.73
2022-10-07T16:11:29.821Z,19.45
2022-10-07T16:13:59.156Z,19.28
2022-10-07T16:16:27.421Z,19.10
2022-10-07T16:18:57.506Z,19.21
2022-10-07T16:21:29.985Z,19.23
2022-10-07T16:23:59.183Z,19.15
2022-10-07T16:26:29.888Z,19.16
2022-10-07T16:29:17.506Z,19.14
2022-10-07T16:31:46.039Z,19.05
2022-10-07T16:34:15.113Z,18.99
2022-10-07T16:36:45.533Z,18.92
2022-10-07T16:39:13.399Z,18.83
2022-10-07T16:41:41.647Z,18.66
2022-10-07T16:44:09.090Z,18.57
2022-10-07T16:46:37.115Z,18.32
2022-10-07T16:49:05.840Z,18.27
2022-10-07T16:51:36.089Z,18.27
2022-10-07T16:54:06.366Z,18.09
2022-10-07T16:56:34.717Z,17.86
2022-10-07T16:59:04.398Z,17.73
2022-10-07T17:01:32.343Z,17.67
2022-10-07T17:04:03.762Z,17.57
2022-10-07T17:06:31.270Z,17.43
2022-10-07T17:09:04.937Z,17.39
2022-10-07T17:11:33.942Z,17.36
2022-10-07T17:14:15.515Z,17.28
2022-10-07T17:16:44.960Z,17.24
2022-10-07T17:19:15.212Z,17.07
2022-10-07T17:21:42.608Z,16.92
2022-10-07T17:24:10.186Z,16.77
2022-10-07T17:26:37.869Z,16.56
2022-10-07T17:29:07.913Z,16.53
2022-10-07T17:31:36.335Z,16.59
2022-10-07T17:34:03.455Z,16.44
2022-10-07T17:36:31.972Z,16.36
2022-10-07T17:38:59.595Z,16.33
2022-10-07T17:41:29.495Z,16.35
2022-10-07T17:43:58.264Z,16.30
2022-10-07T17:46:28.717Z,16.29
2022-10-07T17:48:57.720Z,16.24
2022-10-07T17:51:27.962Z,16.26
2022-10-07T17:53:56.666Z,16.25
2022-10-07T17:56:23.860Z,16.12
2022-10-07T17:58:51.066Z,16.00
2022-10-07T18:01:27.139Z,15.97
2022-10-07T18:04:02.247Z,15.99
2022-10-07T18:06:31.846Z,15.97
2022-10-07T18:08:59.480Z,15.94
2022-10-07T18:11:46.569Z,15.91
2022-10-07T18:14:32.175Z,15.81
2022-10-07T18:16:59.697Z,15.80
2022-10-07T18:19:27.211Z,15.71
2022-10-07T18:21:56.368Z,15.62
2022-10-07T18:24:27.447Z,15.48
2022-10-07T18:26:55.461Z,15.50
2022-10-07T18:29:22.606Z,15.49
2022-10-07T18:31:49.712Z,15.50
2022-10-07T18:34:16.860Z,15.51
2022-10-07T18:36:43.942Z,15.42
2022-10-07T18:39:13.240Z,15.42
2022-10-07T18:41:40.670Z,15.41
2022-10-07T18:44:09.216Z,15.36
2022-10-07T18:46:36.418Z,15.32
2022-10-07T18:49:03.515Z,15.27
2022-10-07T18:51:31.128Z,15.23
2022-10-07T18:53:58.252Z,15.18
2022-10-07T18:56:25.450Z,15.14
2022-10-07T18:58:52.775Z,15.11
2022-10-07T19:01:22.871Z,15.08
2022-10-07T19:04:03.074Z,15.04
2022-10-07T19:06:32.056Z,15.00
2022-10-07T19:09:01.593Z,14.98
2022-10-07T19:11:31.741Z,14.95
2022-10-07T19:13:59.392Z,14.93
2022-10-07T19:16:38.940Z,14.89
2022-10-07T19:19:12.071Z,14.86
2022-10-07T19:21:39.775Z,14.71
2022-10-07T19:24:06.899Z,14.69
2022-10-07T19:26:36.958Z,14.68
2022-10-07T19:29:05.851Z,14.66
2022-10-07T19:31:35.347Z,14.65
2022-10-07T19:34:13.706Z,14.62
2022-10-07T19:36:42.486Z,14.61
2022-10-07T19:39:10.607Z,14.60
2022-10-07T19:41:37.891Z,14.52
2022-10-07T19:44:05.573Z,14.48
2022-10-07T19:46:33.527Z,14.47
2022-10-07T19:49:01.876Z,14.44
2022-10-07T19:51:30.377Z,14.42
2022-10-07T19:53:58.845Z,14.38
2022-10-07T19:56:28.112Z,14.35
2022-10-07T19:58:56.680Z,14.33
2022-10-07T20:01:26.889Z,14.28
2022-10-07T20:03:59.019Z,14.28
2022-10-07T20:06:26.769Z,14.24
2022-10-07T20:08:54.818Z,14.22
2022-10-07T20:11:22.261Z,14.20
2022-10-07T20:13:49.422Z,14.17
2022-10-07T20:16:21.584Z,14.14
2022-10-07T20:18:50.880Z,14.11
2022-10-07T20:21:21.147Z,14.11
2022-10-07T20:23:48.536Z,14.10
2022-10-07T20:26:18.902Z,14.09
2022-10-07T20:28:50.293Z,14.03
2022-10-07T20:31:21.291Z,13.92
2022-10-07T20:33:50.555Z,13.78
2022-10-07T20:36:21.087Z,13.72
2022-10-07T20:39:06.528Z,13.66
2022-10-07T20:41:52.654Z,13.61
2022-10-07T20:44:19.779Z,13.51
2022-10-07T20:46:46.829Z,13.52
2022-10-07T20:49:23.253Z,13.55
2022-10-07T20:51:54.999Z,13.59
2022-10-07T20:54:23.270Z,13.59
2022-10-07T20:56:54.510Z,13.59
2022-10-07T20:59:21.565Z,13.61
2022-10-07T21:01:48.710Z,13.61
2022-10-07T21:04:16.007Z,13.60
2022-10-07T21:06:43.591Z,13.61
2022-10-07T21:09:11.272Z,13.54
2022-10-07T21:11:38.497Z,13.52
2022-10-07T21:14:05.595Z,13.46
2022-10-07T21:16:35.087Z,13.46
2022-10-07T21:19:02.386Z,13.43
2022-10-07T21:21:29.473Z,13.33
2022-10-07T21:23:56.574Z,13.31
2022-10-07T21:26:23.997Z,13.30
2022-10-07T21:28:51.087Z,13.28
2022-10-07T21:31:21.688Z,13.28
2022-10-07T21:33:50.677Z,13.30
2022-10-07T21:36:20.232Z,13.30
2022-10-07T21:38:52.059Z,13.31
2022-10-07T21:41:21.713Z,13.27
2022-10-07T21:43:50.092Z,13.27
2022-10-07T21:46:17.338Z,13.24
2022-10-07T21:48:44.884Z,13.13
2022-10-07T21:51:12.320Z,13.01
2022-10-07T21:53:39.847Z,12.99
2022-10-07T21:56:10.211Z,12.95
2022-10-07T21:58:37.524Z,12.98
2022-10-07T22:01:16.169Z,13.00
2022-10-07T22:03:44.166Z,12.90
2022-10-07T22:06:13.585Z,12.92
2022-10-07T22:08:42.112Z,12.97
2022-10-07T22:11:12.819Z,12.99
2022-10-07T22:13:51.557Z,13.00
2022-10-07T22:16:19.484Z,12.96
2022-10-07T22:18:51.254Z,12.85
2022-10-07T22:21:22.008Z,12.88
2022-10-07T22:23:59.715Z,12.89
2022-10-07T22:26:30.041Z,12.84
2022-10-07T22:28:57.232Z,12.75
2022-10-07T22:31:26.020Z,12.79
2022-10-07T22:33:58.043Z,12.81
2022-10-07T22:36:26.235Z,12.84
2022-10-07T22:38:55.576Z,12.81
2022-10-07T22:41:24.170Z,12.74
2022-10-07T22:43:52.797Z,12.70
2022-10-07T22:46:26.077Z,12.75
2022-10-07T22:48:56.183Z,12.76
2022-10-07T22:51:24.317Z,12.78
2022-10-07T22:53:54.519Z,12.74
2022-10-07T22:56:23.046Z,12.73
2022-10-07T22:58:59.922Z,12.67
2022-10-07T23:01:31.424Z,12.67
2022-10-07T23:04:00.763Z,12.71
2022-10-07T23:06:28.157Z,12.72
2022-10-07T23:08:56.293Z,12.74
2022-10-07T23:11:24.377Z,12.73
2022-10-07T23:13:52.637Z,12.73
2022-10-07T23:16:21.575Z,12.73
2022-10-07T23:18:49.655Z,12.68
2022-10-07T23:21:18.932Z,12.61
2022-10-07T23:23:48.191Z,12.48
2022-10-07T23:26:23.211Z,12.46
2022-10-07T23:28:51.617Z,12.51
2022-10-07T23:31:20.560Z,12.54
2022-10-07T23:33:49.607Z,12.54
2022-10-07T23:36:17.458Z,12.56
2022-10-07T23:38:48.213Z,12.49
2022-10-07T23:41:17.564Z,12.48
2022-10-07T23:43:44.782Z,12.44
2022-10-07T23:46:14.200Z,12.38
2022-10-07T23:48:42.057Z,12.41
2022-10-07T23:51:11.820Z,12.41
2022-10-07T23:53:39.224Z,12.41
2022-10-07T23:56:06.790Z,12.40
2022-10-07T23:58:34.630Z,12.41
